1885 Severe Cyclonic Storm NOT_NAMED (1885156N12071)


IBTrACS version v04r00. Visit IBTrACS website for data access.
Please direct all questions to the IBTrACS Q and A forum

Storm track - Intensity - Wind Radii - Intensity Data - Source Data - All data

Summary Information

Storm ID 1885156N12071
Start Jun 5 00Z
Max Intensity 64 kt (Jun 7 00Z)
End Jun 13 03Z
ATCF IDs
Track status Best track data.

Storm track plot

Map of storm track

Intensity plots

Map of storm track

Radial wind information

No radial wind information for this storm


Position and Intensity Table

BASIN ISO_TIME_________ NATURE LAT LON DS824 WIND
degrees north degrees east kts
NI 1885-06-05 00:00:00 TS 12.20 70.70 30
NI 03:00:00 TS 12.20 70.70 30
NI 06:00:00 TS 12.21 70.70 30
NI 09:00:00 TS 12.21 70.70 30
NI 12:00:00 TS 12.21 70.70 30
NI 15:00:00 TS 12.20 70.70 30
NI 18:00:00 TS 12.18 70.70 30
NI 21:00:00 TS 12.15 70.69 30
NI 1885-06-06 00:00:00 TS 12.16 70.69 30
NI 03:00:00 TS 12.28 70.72 30
NI 06:00:00 TS 12.49 70.77 30
NI 09:00:00 TS 12.76 70.83 30
NI 12:00:00 TS 13.05 70.88 30
NI 15:00:00 TS 13.33 70.91 38
NI 18:00:00 TS 13.59 70.90 47
NI 21:00:00 TS 13.86 70.87 55
NI 1885-06-07 00:00:00 TS 14.10 70.82 64
NI 03:00:00 TS 14.26 70.77 64
NI 06:00:00 TS 14.37 70.73 64
NI 09:00:00 TS 14.47 70.70 64
NI 12:00:00 TS 14.56 70.64 64
NI 15:00:00 TS 14.65 70.53 64
NI 18:00:00 TS 14.74 70.40 64
NI 21:00:00 TS 14.83 70.29 64
NI 1885-06-08 00:00:00 TS 14.94 70.17 64
NI 03:00:00 TS 15.07 70.03 64
NI 06:00:00 TS 15.22 69.88 64
NI 09:00:00 TS 15.39 69.74 64
NI 12:00:00 TS 15.60 69.58 64
NI 15:00:00 TS 15.85 69.40 64
NI 18:00:00 TS 16.12 69.20 64
NI 21:00:00 TS 16.35 69.01 64
NI 1885-06-09 00:00:00 TS 16.52 68.86 64
NI 03:00:00 TS 16.61 68.79 64
NI 06:00:00 TS 16.63 68.77 64
NI 09:00:00 TS 16.63 68.77 64
NI 12:00:00 TS 16.62 68.79 64
NI 15:00:00 TS 16.60 68.80 64
NI 18:00:00 TS 16.57 68.83 64
NI 21:00:00 TS 16.53 68.87 64
NI 1885-06-10 00:00:00 TS 16.55 68.85 64
NI 03:00:00 TS 16.69 68.71 64
NI 06:00:00 TS 16.97 68.44 64
NI 09:00:00 TS 17.33 68.07 64
NI 12:00:00 TS 17.72 67.63 64
NI 15:00:00 TS 18.06 67.18 64
NI 18:00:00 TS 18.35 66.70 64
NI 21:00:00 TS 18.60 66.15 64
NI 1885-06-11 00:00:00 TS 18.81 65.63 64
NI 03:00:00 TS 18.96 65.26 64
NI 06:00:00 TS 19.06 64.98 64
NI 09:00:00 TS 19.13 64.70 64
NI 12:00:00 TS 19.18 64.42 64
NI 15:00:00 TS 19.22 64.15 56
NI 18:00:00 TS 19.27 63.87 49
NI 21:00:00 TS 19.31 63.59 41
NI 1885-06-12 00:00:00 TS 19.37 63.27 34
NI 03:00:00 TS 19.44 62.89 33
NI 06:00:00 TS 19.55 62.45 32
NI 09:00:00 TS 19.68 62.01 31
NI 12:00:00 TS 19.82 61.54 30
NI 15:00:00 TS 19.97 61.05 30
NI 18:00:00 TS 20.12 60.59 30
NI 21:00:00 TS 20.30 60.10 30
NI 1885-06-13 00:00:00 TS 20.48 59.64 30
NI 03:00:00 NR 20.60 59.30

Source Information

Agency Information
USA
TOKYO
CMA
HKO
NEWDELHI
REUNION
BOM
NADI
WELLINGTON
DS824 n_ind.dat:88:NOT NAMED
TD9636 cons_worldwide_trop_cyclone_18710101-19891231-004:Line=848
TD9635
NEUMANN
MLC

All available IBTrACS Data

SEASON BASIN SUBBASIN ISO_TIME_________ NATURE LAT LON DIST2LAND LANDFALL IFLAG USA SSHS DS824 LAT DS824 LON DS824 STAGE DS824 WIND TD9636 LAT TD9636 LON TD9636 STAGE STORM SPEED STORM DIR
Year degrees north degrees east km km 1 degrees north degrees east kts degrees north degrees east kts degrees
1885 NI AS 1885-06-05 00:00:00 TS 12.20 70.70 450 450 _________O____ -1 12.20 70.70 TC 30 0 0
1885 NI AS 03:00:00 TS 12.20 70.70 450 450 _________PO___ -1 12.20 70.70 TC 30 12.20 70.70 1 0 0
1885 NI AS 06:00:00 TS 12.21 70.70 450 450 _________OP___ -1 12.20 70.70 TC 30 12.22 70.70 1 0 0
1885 NI AS 09:00:00 TS 12.21 70.70 450 450 _________PP___ -1 12.20 70.70 TC 30 12.23 70.70 1 0 0
1885 NI AS 12:00:00 TS 12.21 70.70 450 450 _________OP___ -1 12.20 70.70 TC 30 12.22 70.70 1 0 0
1885 NI AS 15:00:00 TS 12.20 70.70 450 450 _________PO___ -1 12.20 70.70 TC 30 12.20 70.70 1 0 218
1885 NI AS 18:00:00 TS 12.18 70.70 450 450 _________OP___ -1 12.20 70.70 TC 30 12.16 70.69 1 1 200
1885 NI AS 21:00:00 TS 12.15 70.69 452 450 _________PP___ -1 12.17 70.69 TC 30 12.12 70.69 1 0 0
1885 NI AS 1885-06-06 00:00:00 TS 12.16 70.69 450 448 _________OP___ -1 12.20 70.70 TC 30 12.13 70.69 1 1 18
1885 NI AS 03:00:00 TS 12.28 70.72 448 432 _________PO___ -1 12.36 70.74 TC 30 12.20 70.70 1 3 13
1885 NI AS 06:00:00 TS 12.49 70.77 432 427 _________OP___ -1 12.60 70.80 TC 30 12.38 70.75 1 5 13
1885 NI AS 09:00:00 TS 12.76 70.83 421 400 _________PP___ -1 12.89 70.86 TC 30 12.63 70.81 1 6 10
1885 NI AS 12:00:00 TS 13.05 70.88 393 381 _________OP___ -1 13.20 70.90 TC 30 12.91 70.86 1 6 7
1885 NI AS 15:00:00 TS 13.33 70.91 381 364 _________PO___ -1 13.46 70.92 TC 38 13.20 70.90 1 5 0
1885 NI AS 18:00:00 TS 13.59 70.90 364 354 _________OP___ -1 13.70 70.90 TC 47 13.47 70.90 1 5 357
1885 NI AS 21:00:00 TS 13.86 70.87 349 345 _________PP___ -1 13.97 70.86 TC 55 13.74 70.88 1 5 351
1885 NI AS 1885-06-07 00:00:00 TS 14.10 70.82 352 343 _________OP___ -1 14.20 70.80 TC 64 13.99 70.84 1 4 348
1885 NI AS 03:00:00 TS 14.26 70.77 343 343 _________PO___ -1 14.32 70.75 TC 64 14.20 70.80 4 3 343
1885 NI AS 06:00:00 TS 14.37 70.73 349 344 _________OP___ -1 14.40 70.70 TC 64 14.34 70.77 4 2 338
1885 NI AS 09:00:00 TS 14.47 70.70 344 344 _________PP___ -1 14.50 70.66 TC 64 14.44 70.73 4 2 333
1885 NI AS 12:00:00 TS 14.56 70.64 351 351 _________OP___ -1 14.60 70.60 TC 64 14.52 70.68 4 2 318
1885 NI AS 15:00:00 TS 14.65 70.53 357 357 _________PO___ -1 14.70 70.46 TC 64 14.60 70.60 4 3 308
1885 NI AS 18:00:00 TS 14.74 70.40 367 362 _________OP___ -1 14.80 70.30 TC 64 14.69 70.50 4 3 309
1885 NI AS 21:00:00 TS 14.83 70.29 372 367 _________PP___ -1 14.89 70.20 TC 64 14.78 70.38 4 3 312
1885 NI AS 1885-06-08 00:00:00 TS 14.94 70.17 377 371 _________OP___ -1 15.00 70.10 TC 64 14.88 70.24 4 3 312
1885 NI AS 03:00:00 TS 15.07 70.03 386 386 _________PO___ -1 15.14 69.96 TC 64 15.00 70.10 4 4 315
1885 NI AS 06:00:00 TS 15.22 69.88 391 391 _________OP___ -1 15.30 69.80 TC 64 15.15 69.96 4 4 319
1885 NI AS 09:00:00 TS 15.39 69.74 404 400 _________PP___ -1 15.48 69.66 TC 64 15.31 69.81 4 5 322
1885 NI AS 12:00:00 TS 15.60 69.58 408 408 _________OP___ -1 15.70 69.50 TC 64 15.50 69.66 4 6 325
1885 NI AS 15:00:00 TS 15.85 69.40 421 421 _________PO___ -1 16.01 69.30 TC 64 15.70 69.50 4 6 325
1885 NI AS 18:00:00 TS 16.12 69.20 439 438 _________OP___ -1 16.30 69.10 TC 64 15.95 69.30 4 6 323
1885 NI AS 21:00:00 TS 16.35 69.01 459 456 _________PP___ -1 16.49 68.92 TC 64 16.20 69.11 4 5 321
1885 NI AS 1885-06-09 00:00:00 TS 16.52 68.86 463 463 _________OP___ -1 16.60 68.80 TC 64 16.43 68.93 4 3 321
1885 NI AS 03:00:00 TS 16.61 68.79 470 470 _________PO___ -1 16.62 68.78 TC 64 16.60 68.80 4 1 322
1885 NI AS 06:00:00 TS 16.63 68.77 470 470 _________OP___ -1 16.60 68.80 TC 64 16.66 68.75 4 0 0
1885 NI AS 09:00:00 TS 16.63 68.77 470 470 _________PP___ -1 16.60 68.80 TC 64 16.67 68.75 4 0 0
1885 NI AS 12:00:00 TS 16.62 68.79 470 470 _________OP___ -1 16.60 68.80 TC 64 16.64 68.77 4 0 148
1885 NI AS 15:00:00 TS 16.60 68.80 470 470 _________PO___ -1 16.60 68.80 TC 64 16.60 68.80 4 1 143
1885 NI AS 18:00:00 TS 16.57 68.83 470 460 _________OP___ -1 16.60 68.80 TC 64 16.55 68.86 4 1 134
1885 NI AS 21:00:00 TS 16.53 68.87 463 463 _________PP___ -1 16.56 68.84 TC 64 16.50 68.90 4 0 0
1885 NI AS 1885-06-10 00:00:00 TS 16.55 68.85 470 470 _________OP___ -1 16.60 68.80 TC 64 16.51 68.90 4 2 317
1885 NI AS 03:00:00 TS 16.69 68.71 476 476 _________PO___ -1 16.79 68.62 TC 64 16.60 68.80 4 6 317
1885 NI AS 06:00:00 TS 16.97 68.44 484 474 _________OP___ -1 17.10 68.30 TC 64 16.84 68.58 4 9 316
1885 NI AS 09:00:00 TS 17.33 68.07 474 461 _________PP___ -1 17.49 67.88 TC 64 17.17 68.25 4 11 314
1885 NI AS 12:00:00 TS 17.72 67.63 467 456 _________OP___ -1 17.90 67.40 TC 64 17.54 67.85 4 11 311
1885 NI AS 15:00:00 TS 18.06 67.18 459 459 _________PO___ -1 18.23 66.96 TC 64 17.90 67.40 4 11 306
1885 NI AS 18:00:00 TS 18.35 66.70 473 473 _________OP___ -1 18.50 66.50 TC 64 18.20 66.91 4 11 299
1885 NI AS 21:00:00 TS 18.60 66.15 503 503 _________PP___ -1 18.73 65.92 TC 64 18.48 66.38 4 11 294
1885 NI AS 1885-06-11 00:00:00 TS 18.81 65.63 520 519 _________OP___ -1 18.90 65.40 TC 64 18.71 65.86 4 9 293
1885 NI AS 03:00:00 TS 18.96 65.26 525 525 _________PO___ -1 19.02 65.11 TC 64 18.90 65.40 4 7 293
1885 NI AS 06:00:00 TS 19.06 64.98 540 540 _________OP___ -1 19.10 64.90 TC 64 19.03 65.06 4 6 288
1885 NI AS 09:00:00 TS 19.13 64.70 564 564 _________PP___ -1 19.16 64.61 TC 64 19.11 64.79 4 5 282
1885 NI AS 12:00:00 TS 19.18 64.42 582 566 _________OP___ -1 19.20 64.30 TC 64 19.16 64.55 4 5 280
1885 NI AS 15:00:00 TS 19.22 64.15 566 533 _________PO___ -1 19.25 64.00 TC 56 19.20 64.30 4 5 280
1885 NI AS 18:00:00 TS 19.27 63.87 533 506 _________OP___ -1 19.30 63.70 TC 49 19.24 64.03 4 5 279
1885 NI AS 21:00:00 TS 19.31 63.59 506 473 _________PP___ -1 19.34 63.42 TC 41 19.28 63.75 4 6 279
1885 NI AS 1885-06-12 00:00:00 TS 19.37 63.27 473 436 _________OP___ -1 19.40 63.10 TC 34 19.33 63.45 4 7 281
1885 NI AS 03:00:00 TS 19.44 62.89 436 395 _________PO___ -1 19.49 62.67 TC 33 19.40 63.10 2 8 283
1885 NI AS 06:00:00 TS 19.55 62.45 395 339 _________OP___ -1 19.60 62.20 TC 32 19.50 62.70 2 9 286
1885 NI AS 09:00:00 TS 19.68 62.01 339 298 _________PP___ -1 19.74 61.76 TC 31 19.61 62.26 2 9 288
1885 NI AS 12:00:00 TS 19.82 61.54 290 244 _________OP___ -1 19.90 61.30 TC 30 19.75 61.79 2 9 288
1885 NI AS 15:00:00 TS 19.97 61.05 244 198 _________PO___ -1 20.04 60.81 TC 30 19.90 61.30 1 9 288
1885 NI AS 18:00:00 TS 20.12 60.59 198 148 _________OP___ -1 20.20 60.30 TC 30 20.06 60.80 1 10 290
1885 NI AS 21:00:00 TS 20.30 60.10 148 106 _________PP___ -1 20.39 59.80 TC 30 20.24 60.31 1 10 292
1885 NI AS 1885-06-13 00:00:00 TS 20.48 59.64 96 63 _________OP___ -1 20.60 59.30 TC 30 20.42 59.80 1 8 292
1885 NI AS 03:00:00 NR 20.60 59.30 63 __________O___ -1 TC 20.60 59.30 1 7 291